Terminal Aerodrome Forecast
Issued by NWS Boston, MA

Home | Current Version | Previous Version | Text Only | Print | Product List | Glossary On
Versions: 1 2 3 4 5 6 7 8 9 10 11 12 13 14 15 16 17 18 19 20
000
FTUS41 KBOX 011723
TAFPVD
TAF
KPVD 011723Z 0118/0218 16006KT P6SM -SHRA OVC050
     FM020000 12005KT P6SM -SHRA OVC025
     FM020200 09004KT 5SM -SHRA BR OVC020
     FM020400 05005KT 4SM -DZ BR OVC010
     FM021500 02005KT P6SM VCSH OVC010=

USA.gov is the U.S. government's official web portal to all federal, state and local government web resources and services.